createdAt,value
2019-03-04T00:00:30.549Z,1.30
2019-03-04T00:02:04.690Z,1.29
2019-03-04T00:03:38.402Z,1.26
2019-03-04T00:05:12.037Z,1.25
2019-03-04T00:06:45.663Z,1.26
2019-03-04T00:08:19.581Z,1.22
2019-03-04T00:09:53.793Z,1.20
2019-03-04T00:11:27.425Z,1.17
2019-03-04T00:13:01.047Z,1.15
2019-03-04T00:14:36.145Z,1.11
2019-03-04T00:16:09.762Z,1.08
2019-03-04T00:17:43.983Z,1.05
2019-03-04T00:19:17.675Z,1.02
2019-03-04T00:20:51.692Z,0.97
2019-03-04T00:22:25.351Z,0.95
2019-03-04T00:23:59.057Z,0.91
2019-03-04T00:25:32.955Z,0.87
2019-03-04T00:27:07.092Z,0.81
2019-03-04T00:28:40.706Z,0.76
2019-03-04T00:30:14.353Z,0.72
2019-03-04T00:31:47.978Z,0.67
2019-03-04T00:33:21.999Z,0.65
2019-03-04T00:34:55.610Z,0.61
2019-03-04T00:36:29.249Z,0.58
2019-03-04T00:38:04.046Z,0.53
2019-03-04T00:39:38.025Z,0.53
2019-03-04T00:41:11.743Z,0.51
2019-03-04T00:42:45.532Z,0.50
2019-03-04T00:44:19.258Z,0.48
2019-03-04T00:45:53.197Z,0.46
2019-03-04T00:47:26.996Z,0.45
2019-03-04T00:49:02.272Z,0.42
2019-03-04T00:50:35.909Z,0.36
2019-03-04T00:52:10.037Z,0.32
2019-03-04T00:53:43.717Z,0.29
2019-03-04T00:55:18.167Z,0.27
2019-03-04T00:56:52.314Z,0.23
2019-03-04T00:58:27.893Z,0.20
2019-03-04T01:00:01.600Z,0.16
2019-03-04T01:01:35.249Z,0.12
2019-03-04T01:03:09.478Z,0.08
2019-03-04T01:04:43.612Z,0.04
2019-03-04T01:06:18.261Z,-0.19
2019-03-04T01:07:51.902Z,0.00
2019-03-04T01:09:27.711Z,0.01
2019-03-04T01:11:01.970Z,0.01
2019-03-04T01:12:36.111Z,0.00
2019-03-04T01:14:09.750Z,0.00
2019-03-04T01:15:43.400Z,0.01
2019-03-04T01:17:17.792Z,0.02
2019-03-04T01:18:51.481Z,0.00
2019-03-04T01:20:25.190Z,-0.01
2019-03-04T01:21:58.888Z,-0.01
2019-03-04T01:23:32.889Z,-0.05
2019-03-04T01:25:09.584Z,-0.04
2019-03-04T01:26:45.839Z,-0.04
2019-03-04T01:28:19.862Z,-0.06
2019-03-04T01:29:53.799Z,-0.09
2019-03-04T01:31:27.451Z,-0.14
2019-03-04T01:33:01.132Z,-0.16
2019-03-04T01:34:34.760Z,-0.17
2019-03-04T01:36:08.802Z,-0.19
2019-03-04T01:37:42.535Z,-0.21
2019-03-04T01:39:16.201Z,-0.22
2019-03-04T01:40:49.836Z,-0.25
2019-03-04T01:42:24.002Z,-0.27
2019-03-04T01:43:57.991Z,-0.28
2019-03-04T01:45:31.623Z,-0.28
2019-03-04T01:47:05.351Z,-0.29
2019-03-04T01:48:39.294Z,-0.28
2019-03-04T01:50:17.230Z,-0.31
2019-03-04T01:51:50.891Z,-0.34
2019-03-04T01:53:24.612Z,-0.36
2019-03-04T01:54:58.880Z,-0.38
2019-03-04T01:56:32.622Z,-0.40
2019-03-04T01:58:06.347Z,-0.44
2019-03-04T01:59:40.197Z,-0.47
2019-03-04T02:01:14.188Z,-0.52
2019-03-04T02:02:48.045Z,-0.55
2019-03-04T02:04:21.747Z,-0.60
2019-03-04T02:05:55.398Z,-0.64
2019-03-04T02:07:29.476Z,-0.67
2019-03-04T02:09:03.361Z,-0.71
2019-03-04T02:10:37.023Z,-0.71
2019-03-04T02:12:10.690Z,-0.71
2019-03-04T02:13:44.572Z,-0.71
2019-03-04T02:15:20.154Z,-0.70
2019-03-04T02:16:53.849Z,-0.70
2019-03-04T02:18:27.445Z,-0.70
2019-03-04T02:20:01.762Z,-0.70
2019-03-04T02:21:36.287Z,-0.69
2019-03-04T02:23:09.966Z,-0.70
2019-03-04T02:24:43.668Z,-0.71
2019-03-04T02:26:18.961Z,-0.70
2019-03-04T02:27:55.917Z,-0.70
2019-03-04T02:29:29.602Z,-0.75
2019-03-04T02:31:03.264Z,-0.79
2019-03-04T02:32:37.135Z,-0.84
2019-03-04T02:34:10.767Z,-0.87
2019-03-04T02:35:44.440Z,-0.89
2019-03-04T02:37:18.178Z,-0.89
2019-03-04T02:38:56.522Z,-0.90
2019-03-04T02:40:30.221Z,-0.95
2019-03-04T02:42:03.922Z,-0.99
2019-03-04T02:43:37.615Z,-1.00
2019-03-04T02:45:14.383Z,-1.02
2019-03-04T02:46:48.407Z,-1.05
2019-03-04T02:48:23.577Z,-1.06
2019-03-04T02:49:57.179Z,-1.06
2019-03-04T02:51:31.115Z,-1.08
2019-03-04T02:53:04.862Z,-1.08
2019-03-04T02:54:38.559Z,-1.09
2019-03-04T02:56:12.202Z,-1.12
2019-03-04T02:57:46.356Z,-1.16
2019-03-04T02:59:20.178Z,-1.22
2019-03-04T03:00:53.905Z,-1.24
2019-03-04T03:02:27.598Z,-1.30
2019-03-04T03:04:01.710Z,-1.34
2019-03-04T03:05:35.498Z,-1.37
2019-03-04T03:07:09.134Z,-1.40
2019-03-04T03:08:42.765Z,-1.43
2019-03-04T03:10:16.700Z,-1.45
2019-03-04T03:11:50.467Z,-1.46
2019-03-04T03:13:24.165Z,-1.47
2019-03-04T03:14:57.902Z,-1.51
2019-03-04T03:16:32.109Z,-1.52
2019-03-04T03:18:06.466Z,-1.52
2019-03-04T03:19:40.186Z,-1.52
2019-03-04T03:21:13.820Z,-1.54
2019-03-04T03:22:47.912Z,-1.52
2019-03-04T03:24:21.669Z,-1.52
2019-03-04T03:25:55.330Z,-1.51
2019-03-04T03:27:28.994Z,-1.50
2019-03-04T03:29:03.120Z,-1.50
2019-03-04T03:30:36.858Z,-1.50
2019-03-04T03:32:11.480Z,-1.46
2019-03-04T03:33:45.158Z,-1.46
2019-03-04T03:35:18.996Z,-1.44
2019-03-04T03:36:52.652Z,-1.44
2019-03-04T03:38:26.353Z,-1.45
2019-03-04T03:40:00.105Z,-1.45
2019-03-04T03:41:34.164Z,-1.47
2019-03-04T03:43:07.814Z,-1.47
2019-03-04T03:44:41.459Z,-1.51
2019-03-04T03:46:15.236Z,-1.54
2019-03-04T03:47:49.402Z,-1.55
2019-03-04T03:49:23.136Z,-1.59
2019-03-04T03:50:56.879Z,-1.64
2019-03-04T03:52:30.562Z,-1.68
2019-03-04T03:54:04.484Z,-1.75
2019-03-04T03:55:38.203Z,-1.79
2019-03-04T03:57:11.964Z,-1.79
2019-03-04T03:58:45.596Z,-1.83
2019-03-04T04:00:26.571Z,-1.86
2019-03-04T04:02:00.331Z,-1.89
2019-03-04T04:03:34.481Z,-1.92
2019-03-04T04:05:08.507Z,-1.94
2019-03-04T04:06:42.342Z,-1.93
2019-03-04T04:08:16.038Z,-1.91
2019-03-04T04:09:49.676Z,-1.91
2019-03-04T04:11:23.373Z,-1.91
2019-03-04T04:12:57.352Z,-2.02
2019-03-04T04:14:31.038Z,-1.91
2019-03-04T04:16:04.679Z,-1.90
2019-03-04T04:17:38.317Z,-1.89
2019-03-04T04:19:12.347Z,-1.88
2019-03-04T04:20:46.057Z,-1.86
2019-03-04T04:22:19.724Z,-1.86
2019-03-04T04:23:53.362Z,-1.85
2019-03-04T04:25:27.253Z,-1.83
2019-03-04T04:27:01.001Z,-1.83
2019-03-04T04:28:35.212Z,-1.83
2019-03-04T04:30:12.196Z,-1.83
2019-03-04T04:31:46.031Z,-1.85
2019-03-04T04:33:19.760Z,-1.87
2019-03-04T04:34:53.981Z,-1.88
2019-03-04T04:36:27.730Z,-1.88
2019-03-04T04:38:01.940Z,-1.89
2019-03-04T04:39:37.214Z,-1.91
2019-03-04T04:41:10.939Z,-1.90
2019-03-04T04:42:44.653Z,-1.89
2019-03-04T04:44:18.568Z,-1.89
2019-03-04T04:45:52.201Z,-1.95
2019-03-04T04:47:25.851Z,-2.01
2019-03-04T04:48:59.619Z,-2.03
2019-03-04T04:50:34.058Z,-2.03
2019-03-04T04:52:07.735Z,-2.05
2019-03-04T04:53:41.418Z,-2.05
2019-03-04T04:55:15.042Z,-2.04
2019-03-04T04:56:48.953Z,-2.04
2019-03-04T04:58:22.570Z,-2.04
2019-03-04T04:59:56.280Z,-2.03
2019-03-04T05:01:29.931Z,-2.00
2019-03-04T05:03:04.830Z,-1.96
2019-03-04T05:04:38.604Z,-1.91
2019-03-04T05:06:13.070Z,-1.90
2019-03-04T05:07:46.945Z,-1.89
2019-03-04T05:09:21.187Z,-1.91
2019-03-04T05:10:54.909Z,-1.99
2019-03-04T05:12:28.713Z,-2.05
2019-03-04T05:14:02.445Z,-2.08
2019-03-04T05:15:36.271Z,-2.22
2019-03-04T05:17:09.991Z,-2.14
2019-03-04T05:18:43.753Z,-2.16
2019-03-04T05:20:22.531Z,-2.14
2019-03-04T05:21:57.931Z,-2.12
2019-03-04T05:23:31.569Z,-2.10
2019-03-04T05:25:05.672Z,-2.06
2019-03-04T05:26:39.322Z,-2.03
2019-03-04T05:28:13.218Z,-1.90
2019-03-04T05:29:48.536Z,-1.53
2019-03-04T05:31:22.225Z,-1.13
2019-03-04T05:32:55.866Z,-0.71
2019-03-04T05:34:30.506Z,-0.25
2019-03-04T05:36:04.212Z,0.17
2019-03-04T05:37:37.835Z,0.58
2019-03-04T05:39:11.555Z,0.98
2019-03-04T05:40:45.563Z,1.39
2019-03-04T05:42:19.309Z,1.71
2019-03-04T05:43:56.031Z,2.08
2019-03-04T05:45:29.743Z,2.45
2019-03-04T05:47:04.034Z,2.72
2019-03-04T05:48:37.699Z,3.06
2019-03-04T05:50:16.984Z,3.48
2019-03-04T05:51:50.621Z,3.78
2019-03-04T05:53:24.530Z,4.01
2019-03-04T05:54:58.206Z,4.17
2019-03-04T05:56:31.927Z,4.49
2019-03-04T05:58:05.602Z,4.78
2019-03-04T05:59:39.523Z,5.06
2019-03-04T06:01:18.924Z,5.24
2019-03-04T06:02:54.602Z,5.46
2019-03-04T06:04:28.263Z,5.77
2019-03-04T06:06:02.207Z,5.97
2019-03-04T06:07:37.500Z,5.89
2019-03-04T06:09:12.906Z,6.07
2019-03-04T06:10:46.639Z,6.19
2019-03-04T06:12:21.487Z,6.37
2019-03-04T06:13:55.188Z,6.74
2019-03-04T06:15:30.787Z,6.96
2019-03-04T06:17:04.394Z,7.15
2019-03-04T06:18:38.448Z,7.28
2019-03-04T06:20:14.817Z,7.29
2019-03-04T06:21:49.072Z,7.54
2019-03-04T06:23:23.324Z,7.64
2019-03-04T06:24:58.050Z,7.36
2019-03-04T06:26:32.354Z,6.98
2019-03-04T06:28:06.633Z,6.97
2019-03-04T06:29:40.955Z,6.95
2019-03-04T06:31:15.595Z,6.73
2019-03-04T06:32:49.796Z,6.81
2019-03-04T06:34:26.993Z,7.17
2019-03-04T06:36:01.214Z,7.40
2019-03-04T06:37:36.174Z,7.29
2019-03-04T06:39:10.391Z,7.28
2019-03-04T06:40:44.728Z,7.59
2019-03-04T06:42:18.973Z,8.03
2019-03-04T06:43:53.749Z,8.42
2019-03-04T06:45:28.026Z,8.78
2019-03-04T06:47:02.291Z,9.08
2019-03-04T06:48:36.511Z,9.32
2019-03-04T06:50:39.809Z,9.56
2019-03-04T06:52:14.105Z,9.85
2019-03-04T06:54:12.182Z,10.19
2019-03-04T06:56:11.878Z,10.64
2019-03-04T06:57:46.124Z,11.04
2019-03-04T06:59:26.246Z,11.17
2019-03-04T07:01:03.747Z,11.31
2019-03-04T07:02:46.207Z,11.44
2019-03-04T07:04:29.084Z,11.70
2019-03-04T07:06:04.837Z,11.86
2019-03-04T07:07:39.181Z,12.04
2019-03-04T07:09:14.399Z,12.37
2019-03-04T07:10:48.620Z,12.48
2019-03-04T07:12:22.845Z,12.77
2019-03-04T07:13:57.095Z,13.20
2019-03-04T07:15:31.772Z,13.39
2019-03-04T07:17:05.974Z,13.64
2019-03-04T07:18:40.205Z,13.73
2019-03-04T07:20:16.924Z,13.89
2019-03-04T07:21:51.354Z,14.16
2019-03-04T07:23:25.682Z,14.40
2019-03-04T07:24:59.979Z,14.45
2019-03-04T07:26:34.276Z,14.72
2019-03-04T07:28:08.625Z,14.99
2019-03-04T07:29:42.909Z,15.31
2019-03-04T07:31:17.208Z,15.25
2019-03-04T07:32:51.500Z,15.06
2019-03-04T07:34:26.159Z,15.07
2019-03-04T07:36:00.503Z,14.90
2019-03-04T07:37:34.498Z,15.04
2019-03-04T07:39:11.013Z,14.93
2019-03-04T07:40:46.263Z,14.95
2019-03-04T07:42:20.503Z,15.27
2019-03-04T07:43:54.735Z,15.48
2019-03-04T07:45:29.078Z,15.62
2019-03-04T07:47:03.711Z,15.84
2019-03-04T07:48:37.942Z,16.01
2019-03-04T07:50:12.542Z,16.10
2019-03-04T07:51:46.876Z,16.14
2019-03-04T07:53:21.452Z,16.41
2019-03-04T07:54:55.783Z,16.58
2019-03-04T07:56:30.379Z,16.68
2019-03-04T07:58:05.017Z,16.92
2019-03-04T07:59:39.355Z,17.23
2019-03-04T08:01:13.627Z,17.31
2019-03-04T08:02:47.983Z,17.55
2019-03-04T08:04:22.196Z,17.69
2019-03-04T08:05:57.761Z,17.66
2019-03-04T08:07:37.702Z,17.68
2019-03-04T08:09:14.922Z,17.78
2019-03-04T08:11:25.783Z,17.82
2019-03-04T08:13:03.168Z,17.94
2019-03-04T08:14:37.460Z,18.33
2019-03-04T08:16:12.426Z,18.69
2019-03-04T08:17:46.880Z,19.02
2019-03-04T08:19:21.092Z,19.20
2019-03-04T08:20:55.313Z,18.82
2019-03-04T08:22:29.552Z,18.41
2019-03-04T08:24:04.151Z,18.42
2019-03-04T08:25:38.383Z,18.42
2019-03-04T08:27:12.696Z,18.61
2019-03-04T08:28:46.891Z,18.99
2019-03-04T08:30:22.142Z,19.26
2019-03-04T08:31:56.391Z,19.52
2019-03-04T08:33:30.626Z,19.86
2019-03-04T08:35:05.248Z,19.94
2019-03-04T08:36:39.990Z,19.83
2019-03-04T08:38:14.243Z,19.84
2019-03-04T08:39:48.471Z,19.95
2019-03-04T08:41:22.756Z,19.97
2019-03-04T08:42:57.653Z,19.99
2019-03-04T08:44:31.996Z,20.17
2019-03-04T08:46:06.337Z,20.25
2019-03-04T08:47:40.655Z,20.21
2019-03-04T08:49:15.082Z,20.38
2019-03-04T08:50:49.439Z,20.49
2019-03-04T08:52:23.750Z,20.76
2019-03-04T08:53:57.997Z,20.63
2019-03-04T08:55:32.648Z,20.76
2019-03-04T08:57:06.925Z,20.56
2019-03-04T08:58:41.290Z,20.78
2019-03-04T09:00:21.310Z,20.68
2019-03-04T09:01:55.758Z,20.85
2019-03-04T09:03:30.028Z,20.93
2019-03-04T09:05:07.529Z,21.12
2019-03-04T09:06:41.841Z,21.33
2019-03-04T09:08:16.401Z,21.42
2019-03-04T09:09:51.203Z,21.54
2019-03-04T09:11:25.428Z,21.76
2019-03-04T09:12:59.757Z,21.67
2019-03-04T09:14:34.243Z,21.62
2019-03-04T09:16:08.833Z,21.58
2019-03-04T09:17:43.194Z,21.57
2019-03-04T09:19:17.411Z,21.73
2019-03-04T09:20:52.056Z,22.01
2019-03-04T09:22:26.274Z,22.29
2019-03-04T09:24:00.498Z,22.22
2019-03-04T09:25:37.655Z,22.26
2019-03-04T09:27:12.360Z,22.51
2019-03-04T09:28:48.071Z,22.73
2019-03-04T09:30:22.976Z,22.92
2019-03-04T09:31:57.463Z,22.92
2019-03-04T09:33:31.981Z,22.67
2019-03-04T09:35:10.355Z,22.63
2019-03-04T09:36:44.599Z,22.67
2019-03-04T09:38:18.864Z,22.82
2019-03-04T09:39:53.507Z,23.06
2019-03-04T09:41:27.905Z,23.08
2019-03-04T09:43:02.900Z,22.94
2019-03-04T09:44:37.112Z,23.09
2019-03-04T09:46:11.634Z,22.94
2019-03-04T09:47:46.502Z,22.99
2019-03-04T09:49:20.838Z,23.02
2019-03-04T09:50:55.369Z,23.31
2019-03-04T09:52:29.802Z,23.17
2019-03-04T09:54:04.138Z,22.65
2019-03-04T09:55:38.506Z,22.19
2019-03-04T09:57:12.766Z,21.81
2019-03-04T09:58:47.275Z,21.33
2019-03-04T10:00:38.857Z,21.01
2019-03-04T10:02:13.624Z,20.75
2019-03-04T10:03:53.772Z,20.36
2019-03-04T10:05:47.419Z,20.04
2019-03-04T10:07:28.007Z,19.88
2019-03-04T10:09:23.626Z,19.78
2019-03-04T10:11:12.875Z,19.66
2019-03-04T10:13:07.921Z,19.39
2019-03-04T10:14:56.925Z,19.24
2019-03-04T10:16:55.150Z,19.15
2019-03-04T10:18:44.050Z,18.87
2019-03-04T10:20:33.307Z,18.73
2019-03-04T10:22:19.387Z,18.70
2019-03-04T10:24:03.681Z,18.48
2019-03-04T10:25:57.606Z,18.22
2019-03-04T10:27:46.621Z,18.25
2019-03-04T10:29:44.059Z,18.18
2019-03-04T10:31:24.390Z,18.17
2019-03-04T10:33:24.137Z,18.28
2019-03-04T10:35:15.773Z,18.33
2019-03-04T10:37:02.194Z,18.43
2019-03-04T10:38:57.219Z,18.20
2019-03-04T10:40:39.985Z,18.07
2019-03-04T10:42:35.393Z,18.05
2019-03-04T10:44:21.254Z,18.08
2019-03-04T10:46:28.796Z,18.06
2019-03-04T10:48:03.694Z,18.05
2019-03-04T10:49:37.909Z,18.08
2019-03-04T10:51:12.479Z,18.03
2019-03-04T10:52:46.823Z,17.95
2019-03-04T10:54:21.458Z,17.88
2019-03-04T10:55:55.675Z,17.93
2019-03-04T10:57:29.972Z,17.75
2019-03-04T10:59:04.207Z,17.76
2019-03-04T11:00:38.899Z,17.78
2019-03-04T11:02:13.135Z,17.53
2019-03-04T11:03:47.336Z,17.48
2019-03-04T11:05:21.554Z,17.46
2019-03-04T11:06:56.566Z,17.44
2019-03-04T11:08:30.779Z,17.46
2019-03-04T11:10:07.938Z,17.44
2019-03-04T11:11:44.698Z,17.47
2019-03-04T11:13:19.531Z,17.46
2019-03-04T11:14:55.429Z,17.47
2019-03-04T11:16:29.649Z,17.47
2019-03-04T11:18:03.954Z,17.58
2019-03-04T11:19:38.395Z,17.58
2019-03-04T11:21:12.668Z,17.52
2019-03-04T11:22:47.423Z,17.51
2019-03-04T11:24:21.703Z,17.60
2019-03-04T11:25:56.270Z,17.62
2019-03-04T11:27:31.954Z,17.60
2019-03-04T11:29:06.385Z,17.46
2019-03-04T11:30:41.019Z,17.45
2019-03-04T11:32:15.764Z,17.48
2019-03-04T11:33:50.040Z,17.51
2019-03-04T11:35:24.320Z,17.49
2019-03-04T11:37:00.020Z,17.51
2019-03-04T11:38:40.393Z,17.42
2019-03-04T11:40:31.128Z,17.40
2019-03-04T11:42:05.362Z,17.35
2019-03-04T11:43:40.637Z,17.33
2019-03-04T11:45:17.597Z,17.27
2019-03-04T11:46:51.863Z,17.22
2019-03-04T11:48:26.067Z,17.20
2019-03-04T11:50:00.299Z,17.21
2019-03-04T11:51:34.848Z,17.33
2019-03-04T11:53:09.095Z,17.42
2019-03-04T11:54:44.795Z,17.45
2019-03-04T11:56:19.090Z,17.44
2019-03-04T11:57:53.922Z,17.48
2019-03-04T11:59:28.206Z,17.54
2019-03-04T12:01:12.917Z,17.54
2019-03-04T12:02:47.210Z,17.49
2019-03-04T12:04:21.822Z,17.42
2019-03-04T12:05:56.106Z,17.49
2019-03-04T12:07:30.416Z,17.53
2019-03-04T12:09:07.636Z,17.64
2019-03-04T12:10:42.542Z,17.74
2019-03-04T12:12:16.901Z,17.70
2019-03-04T12:13:51.105Z,17.70
2019-03-04T12:15:25.399Z,17.76
2019-03-04T12:17:00.194Z,17.80
2019-03-04T12:18:34.575Z,17.82
2019-03-04T12:20:11.589Z,17.79
2019-03-04T12:21:47.826Z,17.68
2019-03-04T12:23:25.185Z,17.70
2019-03-04T12:24:59.403Z,17.65
2019-03-04T12:26:33.599Z,17.69
2019-03-04T12:28:07.810Z,17.74
2019-03-04T12:29:42.567Z,17.77
2019-03-04T12:31:16.854Z,17.78
2019-03-04T12:32:52.450Z,17.84
2019-03-04T12:34:26.879Z,17.84
2019-03-04T12:36:01.656Z,17.82
2019-03-04T12:37:35.862Z,17.79
2019-03-04T12:39:11.771Z,17.82
2019-03-04T12:40:46.039Z,17.85
2019-03-04T12:42:20.460Z,17.93
2019-03-04T12:43:54.659Z,17.94
2019-03-04T12:45:34.356Z,17.95
2019-03-04T12:47:04.987Z,17.95
2019-03-04T12:48:39.427Z,17.94
2019-03-04T12:50:33.325Z,17.92
2019-03-04T12:52:07.658Z,17.87
2019-03-04T12:53:42.222Z,17.83
2019-03-04T12:55:16.519Z,17.86
2019-03-04T12:56:50.736Z,17.90
2019-03-04T12:58:25.005Z,17.53
2019-03-04T12:59:59.663Z,17.95
2019-03-04T13:01:33.966Z,17.96
2019-03-04T13:03:09.814Z,18.00
2019-03-04T13:04:44.109Z,18.01
2019-03-04T13:06:18.755Z,18.05
2019-03-04T13:07:53.053Z,18.05
2019-03-04T13:09:27.344Z,18.11
2019-03-04T13:11:01.597Z,18.19
2019-03-04T13:12:36.718Z,18.25
2019-03-04T13:14:10.937Z,18.26
2019-03-04T13:15:45.672Z,18.28
2019-03-04T13:17:19.928Z,18.27
2019-03-04T13:18:54.557Z,18.27
2019-03-04T13:20:30.381Z,18.30
2019-03-04T13:22:08.435Z,18.29
2019-03-04T13:23:40.496Z,18.28
2019-03-04T13:25:15.800Z,18.25
2019-03-04T13:26:50.037Z,18.25
2019-03-04T13:28:24.222Z,18.23
2019-03-04T13:29:58.495Z,18.24
2019-03-04T13:31:32.993Z,18.29
2019-03-04T13:33:07.189Z,18.27
2019-03-04T13:34:41.470Z,18.24
2019-03-04T13:36:15.778Z,18.23
2019-03-04T13:37:50.823Z,18.22
2019-03-04T13:39:25.112Z,18.20
2019-03-04T13:40:59.396Z,18.18
2019-03-04T13:42:33.729Z,18.16
2019-03-04T13:44:09.368Z,18.18
2019-03-04T13:45:43.659Z,18.19
2019-03-04T13:47:19.915Z,18.24
2019-03-04T13:48:55.664Z,18.27
2019-03-04T13:50:35.129Z,18.28
2019-03-04T13:52:09.923Z,18.23
2019-03-04T13:53:44.335Z,18.18
2019-03-04T13:55:19.980Z,18.16
2019-03-04T13:56:54.608Z,18.19
2019-03-04T13:58:29.203Z,18.17
2019-03-04T14:00:04.986Z,18.17
2019-03-04T14:01:39.214Z,18.18
2019-03-04T14:03:14.875Z,18.22
2019-03-04T14:04:49.142Z,18.22
2019-03-04T14:06:23.352Z,18.23
2019-03-04T14:07:57.592Z,18.20
2019-03-04T14:09:32.185Z,18.22
2019-03-04T14:11:06.449Z,18.18
2019-03-04T14:12:40.656Z,18.15
2019-03-04T14:14:15.344Z,18.14
2019-03-04T14:15:58.036Z,18.14
2019-03-04T14:17:32.316Z,18.12
2019-03-04T14:19:06.598Z,18.14
2019-03-04T14:20:40.904Z,18.12
2019-03-04T14:22:15.470Z,18.16
2019-03-04T14:23:49.716Z,18.14
2019-03-04T14:25:24.017Z,18.16
2019-03-04T14:26:58.265Z,18.14
2019-03-04T14:28:32.813Z,18.13
2019-03-04T14:30:12.603Z,18.09
2019-03-04T14:31:46.811Z,18.06
2019-03-04T14:33:21.095Z,18.08
2019-03-04T14:34:55.898Z,18.08
2019-03-04T14:36:30.100Z,18.08
2019-03-04T14:38:04.304Z,18.07
2019-03-04T14:39:38.649Z,18.03
2019-03-04T14:41:13.373Z,17.98
2019-03-04T14:42:47.666Z,17.55
2019-03-04T14:44:24.995Z,17.93
2019-03-04T14:46:00.778Z,17.94
2019-03-04T14:47:35.497Z,17.92
2019-03-04T14:49:09.811Z,17.92
2019-03-04T14:50:44.107Z,17.90
2019-03-04T14:52:18.397Z,17.90
2019-03-04T14:53:52.877Z,17.87
2019-03-04T14:55:32.130Z,17.84
2019-03-04T14:57:06.448Z,17.81
2019-03-04T14:58:40.662Z,17.77
2019-03-04T15:00:30.802Z,17.74
2019-03-04T15:02:05.030Z,17.69
2019-03-04T15:03:39.361Z,17.66
2019-03-04T15:05:14.480Z,17.64
2019-03-04T15:06:49.354Z,17.61
2019-03-04T15:08:23.630Z,17.56
2019-03-04T15:09:57.889Z,17.53
2019-03-04T15:11:32.190Z,17.52
2019-03-04T15:13:06.909Z,17.10
2019-03-04T15:14:43.331Z,17.09
2019-03-04T15:16:17.194Z,17.45
2019-03-04T15:17:51.490Z,17.41
2019-03-04T15:19:25.895Z,17.36
2019-03-04T15:21:00.226Z,17.36
2019-03-04T15:22:35.358Z,17.33
2019-03-04T15:24:09.978Z,17.28
2019-03-04T15:25:45.495Z,17.21
2019-03-04T15:27:19.775Z,17.16
2019-03-04T15:28:54.112Z,17.09
2019-03-04T15:30:28.411Z,17.02
2019-03-04T15:32:02.943Z,16.96
2019-03-04T15:33:37.164Z,16.90
2019-03-04T15:35:11.401Z,16.85
2019-03-04T15:36:45.623Z,16.78
2019-03-04T15:38:21.001Z,16.69
2019-03-04T15:39:55.202Z,16.61
2019-03-04T15:41:29.460Z,16.53
2019-03-04T15:43:03.716Z,16.46
2019-03-04T15:44:39.070Z,16.38
2019-03-04T15:46:13.401Z,16.30
2019-03-04T15:47:47.788Z,16.18
2019-03-04T15:49:22.099Z,16.07
2019-03-04T15:50:56.666Z,15.98
2019-03-04T15:52:30.911Z,15.88
2019-03-04T15:54:05.212Z,15.81
2019-03-04T15:55:39.558Z,15.73
2019-03-04T15:57:14.171Z,15.69
2019-03-04T15:58:48.493Z,15.62
2019-03-04T16:00:22.918Z,15.55
2019-03-04T16:02:00.133Z,15.44
2019-03-04T16:03:36.786Z,15.34
2019-03-04T16:05:13.667Z,15.25
2019-03-04T16:06:47.979Z,15.19
2019-03-04T16:08:22.340Z,15.17
2019-03-04T16:09:58.434Z,15.12
2019-03-04T16:11:32.934Z,15.05
2019-03-04T16:13:08.573Z,14.98
2019-03-04T16:14:42.950Z,14.86
2019-03-04T16:16:17.680Z,14.74
2019-03-04T16:17:53.536Z,14.66
2019-03-04T16:19:27.943Z,14.57
2019-03-04T16:21:02.178Z,14.49
2019-03-04T16:22:37.232Z,14.40
2019-03-04T16:24:11.567Z,14.33
2019-03-04T16:25:45.810Z,14.27
2019-03-04T16:27:20.145Z,14.25
2019-03-04T16:28:54.926Z,14.20
2019-03-04T16:30:29.229Z,14.10
2019-03-04T16:32:03.505Z,14.03
2019-03-04T16:33:39.410Z,13.98
2019-03-04T16:35:14.214Z,13.88
2019-03-04T16:36:48.544Z,13.76
2019-03-04T16:38:22.916Z,13.65
2019-03-04T16:39:57.128Z,13.52
2019-03-04T16:41:32.212Z,13.39
2019-03-04T16:43:07.844Z,13.25
2019-03-04T16:44:42.160Z,13.10
2019-03-04T16:46:17.337Z,12.99
2019-03-04T16:47:51.783Z,12.86
2019-03-04T16:49:26.704Z,12.74
2019-03-04T16:51:00.934Z,12.61
2019-03-04T16:52:35.231Z,12.49
2019-03-04T16:54:10.051Z,12.38
2019-03-04T16:55:45.039Z,12.28
2019-03-04T16:57:19.354Z,12.18
2019-03-04T16:58:53.619Z,12.09
2019-03-04T17:00:31.180Z,12.03
2019-03-04T17:02:05.621Z,11.94
2019-03-04T17:03:39.849Z,11.87
2019-03-04T17:05:16.592Z,11.82
2019-03-04T17:06:51.188Z,11.71
2019-03-04T17:08:26.487Z,11.63
2019-03-04T17:10:00.786Z,11.54
2019-03-04T17:11:35.097Z,11.45
2019-03-04T17:13:09.858Z,11.35
2019-03-04T17:14:44.137Z,11.26
2019-03-04T17:16:18.428Z,11.18
2019-03-04T17:17:55.278Z,11.09
2019-03-04T17:19:29.770Z,11.04
2019-03-04T17:21:04.565Z,11.01
2019-03-04T17:22:38.906Z,10.95
2019-03-04T17:24:12.621Z,10.86
2019-03-04T17:25:49.245Z,10.79
2019-03-04T17:27:25.380Z,10.72
2019-03-04T17:29:02.439Z,10.63
2019-03-04T17:30:37.832Z,10.54
2019-03-04T17:32:12.349Z,10.46
2019-03-04T17:33:46.663Z,10.41
2019-03-04T17:35:22.362Z,10.34
2019-03-04T17:36:56.064Z,10.29
2019-03-04T17:38:30.515Z,10.24
2019-03-04T17:40:06.901Z,10.20
2019-03-04T17:41:41.121Z,10.14
2019-03-04T17:43:15.373Z,10.07
2019-03-04T17:44:49.926Z,10.02
2019-03-04T17:46:24.210Z,9.97
2019-03-04T17:48:00.757Z,9.90
2019-03-04T17:49:35.324Z,9.85
2019-03-04T17:51:10.016Z,9.79
2019-03-04T17:52:44.255Z,9.74
2019-03-04T17:54:18.490Z,9.71
2019-03-04T17:55:52.119Z,9.64
2019-03-04T17:57:26.434Z,9.57
2019-03-04T17:59:00.742Z,9.51
2019-03-04T18:00:37.729Z,9.44
2019-03-04T18:02:11.997Z,9.38
2019-03-04T18:03:45.935Z,9.32
2019-03-04T18:05:20.218Z,9.26
2019-03-04T18:06:54.534Z,9.20
2019-03-04T18:08:28.949Z,9.13
2019-03-04T18:10:03.529Z,9.05
2019-03-04T18:11:37.848Z,8.97
2019-03-04T18:13:14.713Z,8.92
2019-03-04T18:14:49.012Z,8.86
2019-03-04T18:16:23.609Z,8.81
2019-03-04T18:17:57.297Z,8.78
2019-03-04T18:19:31.052Z,8.74
2019-03-04T18:21:06.334Z,8.70
2019-03-04T18:22:40.936Z,8.64
2019-03-04T18:24:16.182Z,8.57
2019-03-04T18:25:59.341Z,8.51
2019-03-04T18:27:33.645Z,8.44
2019-03-04T18:29:16.587Z,8.39
2019-03-04T18:31:10.146Z,8.31
2019-03-04T18:33:08.165Z,8.20
2019-03-04T18:35:00.986Z,8.01
2019-03-04T18:36:40.491Z,7.88
2019-03-04T18:38:38.186Z,7.79
2019-03-04T18:40:33.704Z,7.68
2019-03-04T18:42:32.582Z,7.56
2019-03-04T18:44:31.811Z,7.44
2019-03-04T18:46:31.511Z,7.33
2019-03-04T18:48:10.838Z,7.24
2019-03-04T18:49:44.701Z,7.22
2019-03-04T18:51:18.414Z,7.22
2019-03-04T18:52:54.277Z,7.22
2019-03-04T18:54:30.205Z,7.23
2019-03-04T18:56:04.429Z,7.26
2019-03-04T18:57:38.129Z,7.23
2019-03-04T18:59:12.110Z,7.21
2019-03-04T19:00:45.727Z,7.16
2019-03-04T19:02:19.490Z,7.13
2019-03-04T19:03:53.256Z,7.09
2019-03-04T19:05:27.337Z,7.05
2019-03-04T19:07:00.982Z,7.01
2019-03-04T19:08:34.689Z,6.95
2019-03-04T19:10:11.112Z,6.90
2019-03-04T19:11:45.154Z,6.84
2019-03-04T19:13:18.782Z,6.80
2019-03-04T19:14:52.475Z,6.76
2019-03-04T19:16:26.125Z,6.71
2019-03-04T19:17:59.979Z,6.68
2019-03-04T19:19:33.686Z,6.64
2019-03-04T19:21:07.452Z,6.60
2019-03-04T19:22:41.154Z,6.56
2019-03-04T19:24:14.962Z,6.51
2019-03-04T19:25:49.892Z,6.49
2019-03-04T19:27:23.575Z,6.47
2019-03-04T19:28:58.516Z,6.44
2019-03-04T19:30:32.446Z,6.41
2019-03-04T19:32:06.851Z,6.39
2019-03-04T19:33:42.041Z,6.34
2019-03-04T19:35:16.263Z,6.28
2019-03-04T19:36:51.524Z,6.24
2019-03-04T19:38:25.689Z,6.20
2019-03-04T19:39:59.430Z,6.15
2019-03-04T19:41:33.239Z,6.11
2019-03-04T19:43:07.674Z,6.10
2019-03-04T19:44:41.359Z,6.09
2019-03-04T19:46:15.011Z,6.08
2019-03-04T19:47:49.515Z,6.08
2019-03-04T19:49:24.430Z,6.09
2019-03-04T19:50:58.722Z,6.08
2019-03-04T19:52:32.422Z,6.05
2019-03-04T19:54:06.201Z,6.02
2019-03-04T19:55:40.136Z,5.96
2019-03-04T19:57:17.605Z,5.91
2019-03-04T19:58:51.875Z,5.81
2019-03-04T20:00:27.461Z,5.73
2019-03-04T20:02:02.220Z,5.68
2019-03-04T20:03:36.636Z,5.60
2019-03-04T20:05:11.122Z,5.55
2019-03-04T20:06:44.768Z,5.46
2019-03-04T20:08:20.751Z,5.40
2019-03-04T20:09:56.400Z,5.32
2019-03-04T20:11:29.834Z,5.25
2019-03-04T20:13:04.238Z,5.18
2019-03-04T20:14:38.225Z,5.14
2019-03-04T20:16:13.215Z,5.09
2019-03-04T20:17:47.000Z,5.05
2019-03-04T20:19:20.648Z,5.01
2019-03-04T20:20:54.460Z,4.97
2019-03-04T20:22:28.192Z,4.90
2019-03-04T20:24:01.874Z,4.83
2019-03-04T20:25:35.593Z,4.75
2019-03-04T20:27:09.424Z,4.68
2019-03-04T20:28:43.175Z,4.65
2019-03-04T20:30:21.956Z,4.65
2019-03-04T20:31:55.726Z,4.67
2019-03-04T20:33:30.370Z,4.69
2019-03-04T20:35:04.791Z,4.69
2019-03-04T20:36:38.511Z,4.66
2019-03-04T20:38:14.971Z,4.65
2019-03-04T20:39:48.839Z,4.66
2019-03-04T20:41:22.468Z,4.64